sensor_id;sensor_type;location;lat;lon;timestamp;temperature;humidity
12926;DHT22;6529;50.566;9.774;2024-02-28T00:01:51;4.50;99.90
12926;DHT22;6529;50.566;9.774;2024-02-28T00:04:17;4.50;99.90
12926;DHT22;6529;50.566;9.774;2024-02-28T00:06:43;4.50;99.90
12926;DHT22;6529;50.566;9.774;2024-02-28T00:09:24;4.60;99.90
12926;DHT22;6529;50.566;9.774;2024-02-28T00:11:49;4.70;99.90
12926;DHT22;6529;50.566;9.774;2024-02-28T00:14:15;4.70;99.90
12926;DHT22;6529;50.566;9.774;2024-02-28T00:16:44;4.70;99.90
12926;DHT22;6529;50.566;9.774;2024-02-28T00:19:11;4.70;99.90
12926;DHT22;6529;50.566;9.774;2024-02-28T00:21:40;4.70;99.90
12926;DHT22;6529;50.566;9.774;2024-02-28T00:24:07;4.70;99.90
12926;DHT22;6529;50.566;9.774;2024-02-28T00:26:32;4.80;99.90
12926;DHT22;6529;50.566;9.774;2024-02-28T00:28:58;4.80;99.90
12926;DHT22;6529;50.566;9.774;2024-02-28T00:31:23;4.80;99.90
12926;DHT22;6529;50.566;9.774;2024-02-28T00:33:49;4.80;99.90
12926;DHT22;6529;50.566;9.774;2024-02-28T00:36:15;4.80;99.90
12926;DHT22;6529;50.566;9.774;2024-02-28T00:38:41;4.90;97.20
12926;DHT22;6529;50.566;9.774;2024-02-28T00:41:06;4.80;28.20
12926;DHT22;6529;50.566;9.774;2024-02-28T00:43:32;4.80;27.70
12926;DHT22;6529;50.566;9.774;2024-02-28T00:45:57;4.70;56.30
12926;DHT22;6529;50.566;9.774;2024-02-28T00:48:24;4.70;74.00
12926;DHT22;6529;50.566;9.774;2024-02-28T00:50:49;4.70;99.90
12926;DHT22;6529;50.566;9.774;2024-02-28T00:53:15;4.70;99.90
12926;DHT22;6529;50.566;9.774;2024-02-28T00:55:41;4.70;99.90
12926;DHT22;6529;50.566;9.774;2024-02-28T00:58:07;4.70;99.90
12926;DHT22;6529;50.566;9.774;2024-02-28T01:00:32;4.70;99.90
12926;DHT22;6529;50.566;9.774;2024-02-28T01:02:58;4.80;99.90
12926;DHT22;6529;50.566;9.774;2024-02-28T01:05:24;4.80;98.70
12926;DHT22;6529;50.566;9.774;2024-02-28T01:07:49;4.80;99.90
12926;DHT22;6529;50.566;9.774;2024-02-28T01:10:15;4.70;99.90
12926;DHT22;6529;50.566;9.774;2024-02-28T01:12:40;4.70;99.90
12926;DHT22;6529;50.566;9.774;2024-02-28T01:15:06;4.70;99.90
12926;DHT22;6529;50.566;9.774;2024-02-28T01:17:32;4.70;99.90
12926;DHT22;6529;50.566;9.774;2024-02-28T01:19:58;4.70;99.90
12926;DHT22;6529;50.566;9.774;2024-02-28T01:22:23;4.80;99.70
12926;DHT22;6529;50.566;9.774;2024-02-28T01:24:49;4.80;67.70
12926;DHT22;6529;50.566;9.774;2024-02-28T01:27:14;4.80;42.30
12926;DHT22;6529;50.566;9.774;2024-02-28T01:29:40;4.80;1.00
12926;DHT22;6529;50.566;9.774;2024-02-28T01:32:06;4.80;1.00
12926;DHT22;6529;50.566;9.774;2024-02-28T01:34:31;4.80;1.00
12926;DHT22;6529;50.566;9.774;2024-02-28T01:36:57;4.70;33.10
12926;DHT22;6529;50.566;9.774;2024-02-28T01:39:23;4.70;60.90
12926;DHT22;6529;50.566;9.774;2024-02-28T01:41:54;4.70;96.30
12926;DHT22;6529;50.566;9.774;2024-02-28T01:44:21;4.70;93.50
12926;DHT22;6529;50.566;9.774;2024-02-28T01:46:47;4.70;28.60
12926;DHT22;6529;50.566;9.774;2024-02-28T01:49:12;4.70;10.20
12926;DHT22;6529;50.566;9.774;2024-02-28T01:51:39;4.70;40.60
12926;DHT22;6529;50.566;9.774;2024-02-28T01:54:04;4.60;52.50
12926;DHT22;6529;50.566;9.774;2024-02-28T01:56:31;4.60;57.00
12926;DHT22;6529;50.566;9.774;2024-02-28T01:58:57;4.60;99.90
12926;DHT22;6529;50.566;9.774;2024-02-28T02:01:23;4.60;99.90
12926;DHT22;6529;50.566;9.774;2024-02-28T02:03:49;4.70;99.90
12926;DHT22;6529;50.566;9.774;2024-02-28T02:06:15;4.70;94.80
12926;DHT22;6529;50.566;9.774;2024-02-28T02:08:40;4.60;89.80
12926;DHT22;6529;50.566;9.774;2024-02-28T02:11:07;4.60;89.50
12926;DHT22;6529;50.566;9.774;2024-02-28T02:13:32;4.50;42.60
12926;DHT22;6529;50.566;9.774;2024-02-28T02:15:58;4.40;99.90
12926;DHT22;6529;50.566;9.774;2024-02-28T02:18:24;4.40;99.90
12926;DHT22;6529;50.566;9.774;2024-02-28T02:21:00;4.40;99.90
12926;DHT22;6529;50.566;9.774;2024-02-28T02:23:27;4.40;99.90
12926;DHT22;6529;50.566;9.774;2024-02-28T02:25:53;4.40;99.90
12926;DHT22;6529;50.566;9.774;2024-02-28T02:28:19;4.40;99.90
12926;DHT22;6529;50.566;9.774;2024-02-28T02:30:44;4.40;99.90
12926;DHT22;6529;50.566;9.774;2024-02-28T02:33:12;4.40;99.90
12926;DHT22;6529;50.566;9.774;2024-02-28T02:35:37;4.50;99.90
12926;DHT22;6529;50.566;9.774;2024-02-28T02:38:03;4.50;99.90
12926;DHT22;6529;50.566;9.774;2024-02-28T02:40:28;4.60;99.90
12926;DHT22;6529;50.566;9.774;2024-02-28T02:42:54;4.50;43.00
12926;DHT22;6529;50.566;9.774;2024-02-28T02:45:20;4.50;96.40
12926;DHT22;6529;50.566;9.774;2024-02-28T02:47:45;4.50;99.90
12926;DHT22;6529;50.566;9.774;2024-02-28T02:50:11;4.40;99.90
12926;DHT22;6529;50.566;9.774;2024-02-28T02:52:37;4.40;91.40
12926;DHT22;6529;50.566;9.774;2024-02-28T02:55:02;4.30;85.10
12926;DHT22;6529;50.566;9.774;2024-02-28T02:57:28;4.30;99.90
12926;DHT22;6529;50.566;9.774;2024-02-28T02:59:56;4.30;99.90
12926;DHT22;6529;50.566;9.774;2024-02-28T03:02:21;4.30;99.90
12926;DHT22;6529;50.566;9.774;2024-02-28T03:04:47;4.30;99.90
12926;DHT22;6529;50.566;9.774;2024-02-28T03:07:13;4.20;90.90
12926;DHT22;6529;50.566;9.774;2024-02-28T03:09:38;4.20;99.90
12926;DHT22;6529;50.566;9.774;2024-02-28T03:12:04;4.20;99.90
12926;DHT22;6529;50.566;9.774;2024-02-28T03:14:29;4.20;89.50
12926;DHT22;6529;50.566;9.774;2024-02-28T03:16:55;4.30;31.10
12926;DHT22;6529;50.566;9.774;2024-02-28T03:19:20;4.30;1.00
12926;DHT22;6529;50.566;9.774;2024-02-28T03:21:46;4.20;63.80
12926;DHT22;6529;50.566;9.774;2024-02-28T03:24:12;4.30;62.70
12926;DHT22;6529;50.566;9.774;2024-02-28T03:26:37;4.30;99.90
12926;DHT22;6529;50.566;9.774;2024-02-28T03:29:03;4.30;99.90
12926;DHT22;6529;50.566;9.774;2024-02-28T03:31:28;4.30;99.90
12926;DHT22;6529;50.566;9.774;2024-02-28T03:33:54;4.40;99.90
12926;DHT22;6529;50.566;9.774;2024-02-28T03:36:20;4.40;99.90
12926;DHT22;6529;50.566;9.774;2024-02-28T03:38:46;4.40;99.90
12926;DHT22;6529;50.566;9.774;2024-02-28T03:41:11;4.40;98.70
12926;DHT22;6529;50.566;9.774;2024-02-28T03:43:37;4.40;18.20
12926;DHT22;6529;50.566;9.774;2024-02-28T03:46:03;4.30;16.60
12926;DHT22;6529;50.566;9.774;2024-02-28T03:48:28;4.40;27.00
12926;DHT22;6529;50.566;9.774;2024-02-28T03:50:54;4.30;1.00
12926;DHT22;6529;50.566;9.774;2024-02-28T03:53:20;4.20;1.00
12926;DHT22;6529;50.566;9.774;2024-02-28T03:55:45;4.20;1.00
12926;DHT22;6529;50.566;9.774;2024-02-28T03:58:11;4.20;1.00
12926;DHT22;6529;50.566;9.774;2024-02-28T04:00:37;4.10;1.00
12926;DHT22;6529;50.566;9.774;2024-02-28T04:03:04;4.00;1.00
12926;DHT22;6529;50.566;9.774;2024-02-28T04:05:29;4.00;39.40
12926;DHT22;6529;50.566;9.774;2024-02-28T04:07:55;4.10;40.10
12926;DHT22;6529;50.566;9.774;2024-02-28T04:10:21;4.00;1.00
12926;DHT22;6529;50.566;9.774;2024-02-28T04:12:47;4.00;1.00
12926;DHT22;6529;50.566;9.774;2024-02-28T04:15:13;4.10;1.00
12926;DHT22;6529;50.566;9.774;2024-02-28T04:17:39;3.90;1.00
12926;DHT22;6529;50.566;9.774;2024-02-28T04:20:12;3.80;1.00
12926;DHT22;6529;50.566;9.774;2024-02-28T04:22:38;3.80;1.00
12926;DHT22;6529;50.566;9.774;2024-02-28T04:25:08;3.80;1.00
12926;DHT22;6529;50.566;9.774;2024-02-28T04:27:37;3.80;17.50
12926;DHT22;6529;50.566;9.774;2024-02-28T04:30:03;3.90;1.00
12926;DHT22;6529;50.566;9.774;2024-02-28T04:32:29;3.90;1.00
12926;DHT22;6529;50.566;9.774;2024-02-28T04:34:55;3.90;1.00
12926;DHT22;6529;50.566;9.774;2024-02-28T04:37:21;3.90;1.00
12926;DHT22;6529;50.566;9.774;2024-02-28T04:39:46;3.90;1.00
12926;DHT22;6529;50.566;9.774;2024-02-28T04:42:13;3.80;1.00
12926;DHT22;6529;50.566;9.774;2024-02-28T04:44:38;3.70;1.00
12926;DHT22;6529;50.566;9.774;2024-02-28T04:47:04;3.60;1.00
12926;DHT22;6529;50.566;9.774;2024-02-28T04:49:30;3.60;1.00
12926;DHT22;6529;50.566;9.774;2024-02-28T04:51:56;3.50;1.00
12926;DHT22;6529;50.566;9.774;2024-02-28T04:54:21;3.50;1.00
12926;DHT22;6529;50.566;9.774;2024-02-28T04:56:47;3.40;1.00
12926;DHT22;6529;50.566;9.774;2024-02-28T04:59:12;3.20;1.00
12926;DHT22;6529;50.566;9.774;2024-02-28T05:01:39;3.20;1.00
12926;DHT22;6529;50.566;9.774;2024-02-28T05:04:08;3.20;5.60
12926;DHT22;6529;50.566;9.774;2024-02-28T05:06:34;3.00;1.00
12926;DHT22;6529;50.566;9.774;2024-02-28T05:09:00;3.00;10.70
12926;DHT22;6529;50.566;9.774;2024-02-28T05:11:25;3.10;29.50
12926;DHT22;6529;50.566;9.774;2024-02-28T05:13:51;3.10;1.00
12926;DHT22;6529;50.566;9.774;2024-02-28T05:16:17;3.00;1.00
12926;DHT22;6529;50.566;9.774;2024-02-28T05:18:44;2.90;1.00
12926;DHT22;6529;50.566;9.774;2024-02-28T05:21:11;3.00;1.00
12926;DHT22;6529;50.566;9.774;2024-02-28T05:23:36;2.90;1.00
12926;DHT22;6529;50.566;9.774;2024-02-28T05:26:02;2.70;1.00
12926;DHT22;6529;50.566;9.774;2024-02-28T05:28:29;2.70;1.00
12926;DHT22;6529;50.566;9.774;2024-02-28T05:30:55;2.60;1.00
12926;DHT22;6529;50.566;9.774;2024-02-28T05:33:21;2.50;1.00
12926;DHT22;6529;50.566;9.774;2024-02-28T05:35:48;2.30;1.00
12926;DHT22;6529;50.566;9.774;2024-02-28T05:38:14;2.30;6.00
12926;DHT22;6529;50.566;9.774;2024-02-28T05:40:41;2.40;15.10
12926;DHT22;6529;50.566;9.774;2024-02-28T05:43:07;2.20;1.00
12926;DHT22;6529;50.566;9.774;2024-02-28T05:45:32;2.20;1.00
12926;DHT22;6529;50.566;9.774;2024-02-28T05:47:58;2.20;1.00
12926;DHT22;6529;50.566;9.774;2024-02-28T05:50:24;2.10;1.00
12926;DHT22;6529;50.566;9.774;2024-02-28T05:52:50;2.00;1.00
12926;DHT22;6529;50.566;9.774;2024-02-28T05:55:17;2.00;60.60
12926;DHT22;6529;50.566;9.774;2024-02-28T05:57:42;1.90;21.00
12926;DHT22;6529;50.566;9.774;2024-02-28T06:00:08;2.00;96.20
12926;DHT22;6529;50.566;9.774;2024-02-28T06:02:37;1.90;78.00
12926;DHT22;6529;50.566;9.774;2024-02-28T06:05:03;2.00;95.00
12926;DHT22;6529;50.566;9.774;2024-02-28T06:07:30;2.00;92.80
12926;DHT22;6529;50.566;9.774;2024-02-28T06:09:55;2.30;99.90
12926;DHT22;6529;50.566;9.774;2024-02-28T06:12:21;2.60;99.90
12926;DHT22;6529;50.566;9.774;2024-02-28T06:14:47;2.50;99.90
12926;DHT22;6529;50.566;9.774;2024-02-28T06:17:13;2.20;1.00
12926;DHT22;6529;50.566;9.774;2024-02-28T06:19:38;1.90;1.00
12926;DHT22;6529;50.566;9.774;2024-02-28T06:22:04;1.70;26.00
12926;DHT22;6529;50.566;9.774;2024-02-28T06:24:29;1.70;99.90
12926;DHT22;6529;50.566;9.774;2024-02-28T06:26:55;2.00;99.90
12926;DHT22;6529;50.566;9.774;2024-02-28T06:29:20;2.90;99.90
12926;DHT22;6529;50.566;9.774;2024-02-28T06:31:51;3.50;99.90
12926;DHT22;6529;50.566;9.774;2024-02-28T06:34:17;3.20;1.00
12926;DHT22;6529;50.566;9.774;2024-02-28T06:36:43;3.00;1.00
12926;DHT22;6529;50.566;9.774;2024-02-28T06:39:09;2.70;1.00
12926;DHT22;6529;50.566;9.774;2024-02-28T06:41:34;2.80;99.90
12926;DHT22;6529;50.566;9.774;2024-02-28T06:44:00;3.50;99.90
12926;DHT22;6529;50.566;9.774;2024-02-28T06:46:26;3.60;1.00
12926;DHT22;6529;50.566;9.774;2024-02-28T06:48:52;3.20;1.00
12926;DHT22;6529;50.566;9.774;2024-02-28T06:51:17;2.80;99.90
12926;DHT22;6529;50.566;9.774;2024-02-28T06:53:43;2.50;1.00
12926;DHT22;6529;50.566;9.774;2024-02-28T06:56:08;2.40;1.00
12926;DHT22;6529;50.566;9.774;2024-02-28T06:58:34;2.30;86.80
12926;DHT22;6529;50.566;9.774;2024-02-28T07:01:00;2.20;99.90
12926;DHT22;6529;50.566;9.774;2024-02-28T07:03:25;2.30;99.90
12926;DHT22;6529;50.566;9.774;2024-02-28T07:05:51;2.30;99.90
12926;DHT22;6529;50.566;9.774;2024-02-28T07:08:18;2.30;99.90
12926;DHT22;6529;50.566;9.774;2024-02-28T07:10:44;2.30;99.90
12926;DHT22;6529;50.566;9.774;2024-02-28T07:13:12;2.30;99.90
12926;DHT22;6529;50.566;9.774;2024-02-28T07:15:38;2.50;99.90
12926;DHT22;6529;50.566;9.774;2024-02-28T07:18:07;2.60;99.90
12926;DHT22;6529;50.566;9.774;2024-02-28T07:20:33;2.60;99.90
12926;DHT22;6529;50.566;9.774;2024-02-28T07:22:59;2.60;99.90
12926;DHT22;6529;50.566;9.774;2024-02-28T07:25:24;2.60;99.90
12926;DHT22;6529;50.566;9.774;2024-02-28T07:27:50;2.70;99.90
12926;DHT22;6529;50.566;9.774;2024-02-28T07:30:16;2.70;99.90
12926;DHT22;6529;50.566;9.774;2024-02-28T07:32:41;2.70;99.90
12926;DHT22;6529;50.566;9.774;2024-02-28T07:35:07;2.80;99.90
12926;DHT22;6529;50.566;9.774;2024-02-28T07:37:33;2.80;99.90
12926;DHT22;6529;50.566;9.774;2024-02-28T07:39:58;2.80;99.90
12926;DHT22;6529;50.566;9.774;2024-02-28T07:42:24;2.80;99.90
12926;DHT22;6529;50.566;9.774;2024-02-28T07:44:50;5.30;99.90
12926;DHT22;6529;50.566;9.774;2024-02-28T07:47:19;7.70;99.90
12926;DHT22;6529;50.566;9.774;2024-02-28T07:49:45;8.80;1.00
12926;DHT22;6529;50.566;9.774;2024-02-28T07:52:10;8.20;99.90
12926;DHT22;6529;50.566;9.774;2024-02-28T07:54:36;7.10;2.00
12926;DHT22;6529;50.566;9.774;2024-02-28T07:57:02;6.10;99.90
12926;DHT22;6529;50.566;9.774;2024-02-28T07:59:27;5.40;1.00
12926;DHT22;6529;50.566;9.774;2024-02-28T08:01:53;4.90;1.00
12926;DHT22;6529;50.566;9.774;2024-02-28T08:04:19;4.50;1.00
12926;DHT22;6529;50.566;9.774;2024-02-28T08:06:44;4.30;1.00
12926;DHT22;6529;50.566;9.774;2024-02-28T08:09:10;4.10;1.00
12926;DHT22;6529;50.566;9.774;2024-02-28T08:11:35;4.00;1.00
12926;DHT22;6529;50.566;9.774;2024-02-28T08:14:01;4.00;30.70
12926;DHT22;6529;50.566;9.774;2024-02-28T08:16:26;3.90;72.50
12926;DHT22;6529;50.566;9.774;2024-02-28T08:18:52;4.00;99.90
12926;DHT22;6529;50.566;9.774;2024-02-28T08:21:17;4.10;99.90
12926;DHT22;6529;50.566;9.774;2024-02-28T08:23:43;4.10;90.80
12926;DHT22;6529;50.566;9.774;2024-02-28T08:26:09;4.20;76.80
12926;DHT22;6529;50.566;9.774;2024-02-28T08:28:35;4.20;1.00
12926;DHT22;6529;50.566;9.774;2024-02-28T08:31:01;4.20;1.00
12926;DHT22;6529;50.566;9.774;2024-02-28T08:33:27;4.30;1.00
12926;DHT22;6529;50.566;9.774;2024-02-28T08:35:52;4.30;1.00
12926;DHT22;6529;50.566;9.774;2024-02-28T08:38:19;4.30;1.00
12926;DHT22;6529;50.566;9.774;2024-02-28T08:40:44;4.20;1.00
12926;DHT22;6529;50.566;9.774;2024-02-28T08:43:10;4.20;1.00
12926;DHT22;6529;50.566;9.774;2024-02-28T08:45:36;4.20;1.00
12926;DHT22;6529;50.566;9.774;2024-02-28T08:48:02;4.10;1.00
12926;DHT22;6529;50.566;9.774;2024-02-28T08:50:28;4.10;1.00
12926;DHT22;6529;50.566;9.774;2024-02-28T08:52:54;4.00;1.00
12926;DHT22;6529;50.566;9.774;2024-02-28T08:55:20;4.00;99.90
12926;DHT22;6529;50.566;9.774;2024-02-28T08:57:47;4.10;99.90
12926;DHT22;6529;50.566;9.774;2024-02-28T09:00:13;4.20;1.00
12926;DHT22;6529;50.566;9.774;2024-02-28T09:02:40;4.50;10.20
12926;DHT22;6529;50.566;9.774;2024-02-28T09:05:06;4.90;1.00
12926;DHT22;6529;50.566;9.774;2024-02-28T09:07:32;5.00;1.00
12926;DHT22;6529;50.566;9.774;2024-02-28T09:09:58;5.10;99.90
12926;DHT22;6529;50.566;9.774;2024-02-28T09:12:23;5.20;1.00
12926;DHT22;6529;50.566;9.774;2024-02-28T09:14:49;5.60;99.90
12926;DHT22;6529;50.566;9.774;2024-02-28T09:17:20;5.90;99.90
12926;DHT22;6529;50.566;9.774;2024-02-28T09:19:45;5.90;99.90
12926;DHT22;6529;50.566;9.774;2024-02-28T09:22:11;5.70;99.90
12926;DHT22;6529;50.566;9.774;2024-02-28T09:24:37;5.60;1.00
12926;DHT22;6529;50.566;9.774;2024-02-28T09:27:03;5.40;99.90
12926;DHT22;6529;50.566;9.774;2024-02-28T09:29:28;5.50;1.00
12926;DHT22;6529;50.566;9.774;2024-02-28T09:31:54;5.70;1.00
12926;DHT22;6529;50.566;9.774;2024-02-28T09:34:19;6.00;99.90
12926;DHT22;6529;50.566;9.774;2024-02-28T09:36:45;5.80;99.90
12926;DHT22;6529;50.566;9.774;2024-02-28T09:39:14;6.00;1.00
12926;DHT22;6529;50.566;9.774;2024-02-28T09:41:44;6.30;99.90
12926;DHT22;6529;50.566;9.774;2024-02-28T09:44:10;6.30;35.00
12926;DHT22;6529;50.566;9.774;2024-02-28T09:46:36;6.40;99.90
12926;DHT22;6529;50.566;9.774;2024-02-28T09:49:05;6.30;99.90
12926;DHT22;6529;50.566;9.774;2024-02-28T09:51:35;6.20;99.90
12926;DHT22;6529;50.566;9.774;2024-02-28T09:54:04;6.40;1.00
12926;DHT22;6529;50.566;9.774;2024-02-28T09:56:31;6.70;1.00
12926;DHT22;6529;50.566;9.774;2024-02-28T09:58:57;7.00;1.00
12926;DHT22;6529;50.566;9.774;2024-02-28T10:01:25;7.20;1.00
12926;DHT22;6529;50.566;9.774;2024-02-28T10:03:52;7.30;99.90
12926;DHT22;6529;50.566;9.774;2024-02-28T10:06:19;7.30;1.00
12926;DHT22;6529;50.566;9.774;2024-02-28T10:08:44;7.40;1.00
12926;DHT22;6529;50.566;9.774;2024-02-28T10:11:19;7.60;1.00
12926;DHT22;6529;50.566;9.774;2024-02-28T10:13:47;7.90;1.00
12926;DHT22;6529;50.566;9.774;2024-02-28T10:16:12;7.90;99.90
12926;DHT22;6529;50.566;9.774;2024-02-28T10:18:39;8.00;1.00
12926;DHT22;6529;50.566;9.774;2024-02-28T10:21:05;8.20;1.00
12926;DHT22;6529;50.566;9.774;2024-02-28T10:23:31;8.30;1.00
12926;DHT22;6529;50.566;9.774;2024-02-28T10:25:57;8.20;1.00
12926;DHT22;6529;50.566;9.774;2024-02-28T10:28:22;8.30;99.90
12926;DHT22;6529;50.566;9.774;2024-02-28T10:30:48;8.40;1.00
12926;DHT22;6529;50.566;9.774;2024-02-28T10:33:14;8.30;1.00
12926;DHT22;6529;50.566;9.774;2024-02-28T10:35:40;8.60;99.90
12926;DHT22;6529;50.566;9.774;2024-02-28T10:38:12;8.80;99.90
12926;DHT22;6529;50.566;9.774;2024-02-28T10:40:42;9.10;99.90
12926;DHT22;6529;50.566;9.774;2024-02-28T10:43:09;9.00;99.90
12926;DHT22;6529;50.566;9.774;2024-02-28T10:45:38;9.30;99.90
12926;DHT22;6529;50.566;9.774;2024-02-28T10:48:05;9.50;1.00
12926;DHT22;6529;50.566;9.774;2024-02-28T10:50:32;9.20;1.00
12926;DHT22;6529;50.566;9.774;2024-02-28T10:53:02;9.30;1.00
12926;DHT22;6529;50.566;9.774;2024-02-28T10:55:34;9.50;1.00
12926;DHT22;6529;50.566;9.774;2024-02-28T10:58:07;9.60;1.00
12926;DHT22;6529;50.566;9.774;2024-02-28T11:00:34;9.50;1.00
12926;DHT22;6529;50.566;9.774;2024-02-28T11:03:01;9.90;1.00
12926;DHT22;6529;50.566;9.774;2024-02-28T11:05:44;10.00;1.00
12926;DHT22;6529;50.566;9.774;2024-02-28T11:08:27;10.20;1.00
12926;DHT22;6529;50.566;9.774;2024-02-28T11:11:03;10.50;1.00
12926;DHT22;6529;50.566;9.774;2024-02-28T11:13:33;10.80;99.90
12926;DHT22;6529;50.566;9.774;2024-02-28T11:16:09;10.90;99.90
12926;DHT22;6529;50.566;9.774;2024-02-28T11:18:34;11.30;1.00
12926;DHT22;6529;50.566;9.774;2024-02-28T11:21:00;11.60;1.00
12926;DHT22;6529;50.566;9.774;2024-02-28T11:23:35;11.80;99.90
12926;DHT22;6529;50.566;9.774;2024-02-28T11:26:03;11.80;99.90
12926;DHT22;6529;50.566;9.774;2024-02-28T11:28:29;11.90;99.90
12926;DHT22;6529;50.566;9.774;2024-02-28T11:30:54;12.20;99.90
12926;DHT22;6529;50.566;9.774;2024-02-28T11:33:20;12.50;99.90
12926;DHT22;6529;50.566;9.774;2024-02-28T11:35:54;12.60;1.00
12926;DHT22;6529;50.566;9.774;2024-02-28T11:38:20;12.70;99.90
12926;DHT22;6529;50.566;9.774;2024-02-28T11:40:50;13.30;1.00
12926;DHT22;6529;50.566;9.774;2024-02-28T11:43:15;13.20;1.00
12926;DHT22;6529;50.566;9.774;2024-02-28T11:45:41;12.70;1.00
12926;DHT22;6529;50.566;9.774;2024-02-28T11:48:07;12.70;24.20
12926;DHT22;6529;50.566;9.774;2024-02-28T11:50:32;12.70;99.90
12926;DHT22;6529;50.566;9.774;2024-02-28T11:52:58;13.00;1.00
12926;DHT22;6529;50.566;9.774;2024-02-28T11:55:25;13.00;1.00
12926;DHT22;6529;50.566;9.774;2024-02-28T11:57:51;13.20;1.00
12926;DHT22;6529;50.566;9.774;2024-02-28T12:00:16;13.00;1.00
12926;DHT22;6529;50.566;9.774;2024-02-28T12:02:42;13.00;1.00
12926;DHT22;6529;50.566;9.774;2024-02-28T12:05:08;13.30;1.00
12926;DHT22;6529;50.566;9.774;2024-02-28T12:07:34;13.50;1.00
12926;DHT22;6529;50.566;9.774;2024-02-28T12:10:00;13.20;1.00
12926;DHT22;6529;50.566;9.774;2024-02-28T12:12:29;13.60;1.00
12926;DHT22;6529;50.566;9.774;2024-02-28T12:14:59;13.20;1.00
12926;DHT22;6529;50.566;9.774;2024-02-28T12:17:30;13.20;1.00
12926;DHT22;6529;50.566;9.774;2024-02-28T12:19:58;12.90;1.00
12926;DHT22;6529;50.566;9.774;2024-02-28T12:22:24;12.80;1.00
12926;DHT22;6529;50.566;9.774;2024-02-28T12:24:49;13.20;1.00
12926;DHT22;6529;50.566;9.774;2024-02-28T12:27:15;13.10;1.00
12926;DHT22;6529;50.566;9.774;2024-02-28T12:29:40;13.20;1.00
12926;DHT22;6529;50.566;9.774;2024-02-28T12:32:07;13.30;1.00
12926;DHT22;6529;50.566;9.774;2024-02-28T12:34:33;13.30;1.00
12926;DHT22;6529;50.566;9.774;2024-02-28T12:36:59;13.20;1.00
12926;DHT22;6529;50.566;9.774;2024-02-28T12:39:26;13.00;1.00
12926;DHT22;6529;50.566;9.774;2024-02-28T12:41:52;13.30;1.00
12926;DHT22;6529;50.566;9.774;2024-02-28T12:44:18;13.50;1.00
12926;DHT22;6529;50.566;9.774;2024-02-28T12:46:43;13.60;1.00
12926;DHT22;6529;50.566;9.774;2024-02-28T12:49:09;13.90;1.00
12926;DHT22;6529;50.566;9.774;2024-02-28T12:51:41;14.10;1.00
12926;DHT22;6529;50.566;9.774;2024-02-28T12:54:10;14.10;1.00
12926;DHT22;6529;50.566;9.774;2024-02-28T12:56:36;14.30;1.00
12926;DHT22;6529;50.566;9.774;2024-02-28T12:59:03;14.30;1.00
12926;DHT22;6529;50.566;9.774;2024-02-28T13:01:29;14.30;1.00
12926;DHT22;6529;50.566;9.774;2024-02-28T13:03:55;14.40;1.00
12926;DHT22;6529;50.566;9.774;2024-02-28T13:06:21;14.90;1.00
12926;DHT22;6529;50.566;9.774;2024-02-28T13:08:46;14.40;1.00
12926;DHT22;6529;50.566;9.774;2024-02-28T13:11:18;14.20;1.00
12926;DHT22;6529;50.566;9.774;2024-02-28T13:13:44;14.50;1.00
12926;DHT22;6529;50.566;9.774;2024-02-28T13:16:10;14.50;1.00
12926;DHT22;6529;50.566;9.774;2024-02-28T13:18:35;14.40;1.00
12926;DHT22;6529;50.566;9.774;2024-02-28T13:21:01;14.40;1.00
12926;DHT22;6529;50.566;9.774;2024-02-28T13:23:26;14.10;1.00
12926;DHT22;6529;50.566;9.774;2024-02-28T13:25:52;14.00;1.00
12926;DHT22;6529;50.566;9.774;2024-02-28T13:28:17;13.80;1.00
12926;DHT22;6529;50.566;9.774;2024-02-28T13:30:43;14.00;1.00
12926;DHT22;6529;50.566;9.774;2024-02-28T13:33:08;14.40;1.00
12926;DHT22;6529;50.566;9.774;2024-02-28T13:35:35;14.80;1.00
12926;DHT22;6529;50.566;9.774;2024-02-28T13:38:03;15.10;1.00
12926;DHT22;6529;50.566;9.774;2024-02-28T13:40:29;15.30;1.00
12926;DHT22;6529;50.566;9.774;2024-02-28T13:42:54;14.70;1.00
12926;DHT22;6529;50.566;9.774;2024-02-28T13:45:20;14.40;1.00
12926;DHT22;6529;50.566;9.774;2024-02-28T13:47:46;14.50;1.00
12926;DHT22;6529;50.566;9.774;2024-02-28T13:50:11;14.70;1.00
12926;DHT22;6529;50.566;9.774;2024-02-28T13:52:37;14.30;1.00
12926;DHT22;6529;50.566;9.774;2024-02-28T13:55:03;14.60;1.00
12926;DHT22;6529;50.566;9.774;2024-02-28T13:57:28;14.60;1.00
12926;DHT22;6529;50.566;9.774;2024-02-28T13:59:54;14.50;1.00
12926;DHT22;6529;50.566;9.774;2024-02-28T14:02:23;14.70;1.00
12926;DHT22;6529;50.566;9.774;2024-02-28T14:04:52;14.60;1.00
12926;DHT22;6529;50.566;9.774;2024-02-28T14:07:17;14.50;1.00
12926;DHT22;6529;50.566;9.774;2024-02-28T14:09:43;14.10;1.00
12926;DHT22;6529;50.566;9.774;2024-02-28T14:12:10;14.50;1.00
12926;DHT22;6529;50.566;9.774;2024-02-28T14:14:35;14.90;1.00
12926;DHT22;6529;50.566;9.774;2024-02-28T14:17:01;15.50;1.00
12926;DHT22;6529;50.566;9.774;2024-02-28T14:19:27;15.40;1.00
12926;DHT22;6529;50.566;9.774;2024-02-28T14:21:52;15.40;1.00
12926;DHT22;6529;50.566;9.774;2024-02-28T14:24:18;15.50;1.00
12926;DHT22;6529;50.566;9.774;2024-02-28T14:26:45;15.00;1.00
12926;DHT22;6529;50.566;9.774;2024-02-28T14:29:11;15.10;1.00
12926;DHT22;6529;50.566;9.774;2024-02-28T14:31:37;14.70;1.00
12926;DHT22;6529;50.566;9.774;2024-02-28T14:34:02;14.90;1.00
12926;DHT22;6529;50.566;9.774;2024-02-28T14:36:30;15.10;1.00
12926;DHT22;6529;50.566;9.774;2024-02-28T14:38:57;15.30;1.00
12926;DHT22;6529;50.566;9.774;2024-02-28T14:41:23;15.40;1.00
12926;DHT22;6529;50.566;9.774;2024-02-28T14:43:49;15.20;1.00
12926;DHT22;6529;50.566;9.774;2024-02-28T14:46:14;14.70;1.00
12926;DHT22;6529;50.566;9.774;2024-02-28T14:48:43;14.50;1.00
12926;DHT22;6529;50.566;9.774;2024-02-28T14:51:10;14.40;1.00
12926;DHT22;6529;50.566;9.774;2024-02-28T14:53:36;14.20;1.00
12926;DHT22;6529;50.566;9.774;2024-02-28T14:56:01;14.20;1.00
12926;DHT22;6529;50.566;9.774;2024-02-28T14:58:27;14.20;1.00
12926;DHT22;6529;50.566;9.774;2024-02-28T15:00:52;13.60;1.00
12926;DHT22;6529;50.566;9.774;2024-02-28T15:03:19;13.60;1.00
12926;DHT22;6529;50.566;9.774;2024-02-28T15:05:45;13.80;1.00
12926;DHT22;6529;50.566;9.774;2024-02-28T15:08:12;13.80;1.00
12926;DHT22;6529;50.566;9.774;2024-02-28T15:10:38;13.80;1.00
12926;DHT22;6529;50.566;9.774;2024-02-28T15:13:04;13.70;1.00
12926;DHT22;6529;50.566;9.774;2024-02-28T15:15:31;13.30;1.00
12926;DHT22;6529;50.566;9.774;2024-02-28T15:17:57;13.00;1.00
12926;DHT22;6529;50.566;9.774;2024-02-28T15:20:23;13.00;1.00
12926;DHT22;6529;50.566;9.774;2024-02-28T15:22:49;13.00;1.00
12926;DHT22;6529;50.566;9.774;2024-02-28T15:25:14;12.90;1.00
12926;DHT22;6529;50.566;9.774;2024-02-28T15:27:40;12.60;1.00
12926;DHT22;6529;50.566;9.774;2024-02-28T15:30:06;12.40;1.00
12926;DHT22;6529;50.566;9.774;2024-02-28T15:32:32;12.30;1.00
12926;DHT22;6529;50.566;9.774;2024-02-28T15:34:58;12.30;1.00
12926;DHT22;6529;50.566;9.774;2024-02-28T15:37:23;12.10;1.00
12926;DHT22;6529;50.566;9.774;2024-02-28T15:39:49;11.90;1.00
12926;DHT22;6529;50.566;9.774;2024-02-28T15:42:15;11.90;1.00
12926;DHT22;6529;50.566;9.774;2024-02-28T15:44:41;11.80;1.00
12926;DHT22;6529;50.566;9.774;2024-02-28T15:47:08;11.60;1.00
12926;DHT22;6529;50.566;9.774;2024-02-28T15:49:34;11.50;1.00
12926;DHT22;6529;50.566;9.774;2024-02-28T15:52:00;11.50;1.00
12926;DHT22;6529;50.566;9.774;2024-02-28T15:54:26;11.50;1.00
12926;DHT22;6529;50.566;9.774;2024-02-28T15:56:52;11.50;1.00
12926;DHT22;6529;50.566;9.774;2024-02-28T15:59:18;11.30;1.00